Edmonton, Canada
Current Conditions -  °F | °C
As of 2:00 AM on Friday 31 Oct 2014 (Local Time) from CYXD Reporting Station
Broken Clouds Broken Clouds  
Wind Chill: 29°   Ceiling: 1400
Heat Index: 37°   Visibility: 9mi
Dew Point: 32°   Wind: 15mph
Humidity: 81%   Direction: 140°SE
Pressure: 29.75"   Gusts: NA
Location:  53.55°N, 113.49°W
Report Text: CYXD 310800Z AUTO 14013KT 9SM BKN014 03/00 A2975 RMK SLP100
Loading
Personal Weather Stations






























Interactive Weather Map
Tropical Storm Tracking
New forecast layout! Learn more

10-Day Weather Forecast

Advertisements
Track Severe Weather on mobile